sensor_id;sensor_type;location;lat;lon;timestamp;pressure;altitude;pressure_sealevel;temperature;humidity
51289;BME280;37372;52.294;5.152;2023-07-16T00:01:39;100676.06;;;15.96;78.33
51289;BME280;37372;52.294;5.152;2023-07-16T00:04:08;100679.91;;;15.90;78.04
51289;BME280;37372;52.294;5.152;2023-07-16T00:06:41;100684.06;;;15.87;78.34
51289;BME280;37372;52.294;5.152;2023-07-16T00:09:09;100674.66;;;15.88;77.31
51289;BME280;37372;52.294;5.152;2023-07-16T00:11:48;100683.78;;;15.89;77.55
51289;BME280;37372;52.294;5.152;2023-07-16T00:14:16;100682.41;;;15.86;77.24
51289;BME280;37372;52.294;5.152;2023-07-16T00:16:45;100672.97;;;15.82;77.12
51289;BME280;37372;52.294;5.152;2023-07-16T00:19:14;100682.94;;;15.83;77.48
51289;BME280;37372;52.294;5.152;2023-07-16T00:21:40;100682.13;;;15.88;76.27
51289;BME280;37372;52.294;5.152;2023-07-16T00:24:16;100684.63;;;15.89;77.19
51289;BME280;37372;52.294;5.152;2023-07-16T00:26:53;100682.13;;;15.88;75.87
51289;BME280;37372;52.294;5.152;2023-07-16T00:29:18;100687.38;;;15.84;76.46
51289;BME280;37372;52.294;5.152;2023-07-16T00:32:04;100683.22;;;15.82;76.05
51289;BME280;37372;52.294;5.152;2023-07-16T00:34:44;100679.09;;;15.84;76.71
51289;BME280;37372;52.294;5.152;2023-07-16T00:37:21;100685.69;;;15.83;76.67
51289;BME280;37372;52.294;5.152;2023-07-16T00:39:47;100690.69;;;15.81;75.74
51289;BME280;37372;52.294;5.152;2023-07-16T00:42:12;100689.88;;;15.86;76.13
51289;BME280;37372;52.294;5.152;2023-07-16T00:44:38;100684.63;;;15.84;75.65
51289;BME280;37372;52.294;5.152;2023-07-16T00:47:03;100693.47;;;15.86;76.00
51289;BME280;37372;52.294;5.152;2023-07-16T00:49:41;100694.31;;;15.87;75.47
51289;BME280;37372;52.294;5.152;2023-07-16T00:52:16;100691.22;;;15.83;75.10
51289;BME280;37372;52.294;5.152;2023-07-16T00:54:53;100698.41;;;15.79;75.44
51289;BME280;37372;52.294;5.152;2023-07-16T00:57:26;100685.41;;;15.80;76.00
51289;BME280;37372;52.294;5.152;2023-07-16T01:00:04;100693.72;;;15.80;75.81
51289;BME280;37372;52.294;5.152;2023-07-16T01:02:30;100694.00;;;15.78;75.49
51289;BME280;37372;52.294;5.152;2023-07-16T01:04:56;100695.34;;;15.76;76.26
51289;BME280;37372;52.294;5.152;2023-07-16T01:07:27;100700.03;;;15.75;75.76
51289;BME280;37372;52.294;5.152;2023-07-16T01:09:58;100690.09;;;15.74;76.04
51289;BME280;37372;52.294;5.152;2023-07-16T01:12:34;100693.13;;;15.78;75.29
51289;BME280;37372;52.294;5.152;2023-07-16T01:14:59;100690.09;;;15.74;76.29
51289;BME280;37372;52.294;5.152;2023-07-16T01:17:37;100695.63;;;15.74;75.75
51289;BME280;37372;52.294;5.152;2023-07-16T01:20:16;100695.31;;;15.70;75.83
51289;BME280;37372;52.294;5.152;2023-07-16T01:22:52;100701.72;;;15.76;76.06
51289;BME280;37372;52.294;5.152;2023-07-16T01:25:51;100698.66;;;15.73;75.39
51289;BME280;37372;52.294;5.152;2023-07-16T01:31:11;100695.03;;;15.67;76.29
51289;BME280;37372;52.294;5.152;2023-07-16T01:33:49;100693.94;;;15.68;76.30
51289;BME280;37372;52.294;5.152;2023-07-16T01:36:16;100697.56;;;15.74;75.74
51289;BME280;37372;52.294;5.152;2023-07-16T01:38:42;100701.72;;;15.76;76.10
51289;BME280;37372;52.294;5.152;2023-07-16T01:41:07;100698.66;;;15.78;75.31
51289;BME280;37372;52.294;5.152;2023-07-16T01:43:33;100693.69;;;15.75;75.94
51289;BME280;37372;52.294;5.152;2023-07-16T01:45:58;100698.09;;;15.70;76.38
51289;BME280;37372;52.294;5.152;2023-07-16T01:48:37;100697.81;;;15.67;76.73
51289;BME280;37372;52.294;5.152;2023-07-16T01:51:04;100693.94;;;15.68;76.01
51289;BME280;37372;52.294;5.152;2023-07-16T01:53:30;100694.47;;;15.70;76.93
51289;BME280;37372;52.294;5.152;2023-07-16T01:55:57;100684.53;;;15.69;76.24
51289;BME280;37372;52.294;5.152;2023-07-16T01:58:23;100691.16;;;15.68;78.04
51289;BME280;37372;52.294;5.152;2023-07-16T02:00:53;100696.69;;;15.68;77.15
51289;BME280;37372;52.294;5.152;2023-07-16T02:03:21;100694.75;;;15.68;77.56
51289;BME280;37372;52.294;5.152;2023-07-16T02:05:47;100687.56;;;15.67;77.35
51289;BME280;37372;52.294;5.152;2023-07-16T02:08:13;100695.91;;;15.73;76.97
51289;BME280;37372;52.294;5.152;2023-07-16T02:10:38;100690.09;;;15.74;78.27
51289;BME280;37372;52.294;5.152;2023-07-16T02:13:03;100684.84;;;15.73;77.40
51289;BME280;37372;52.294;5.152;2023-07-16T02:15:29;100683.72;;;15.74;77.77
51289;BME280;37372;52.294;5.152;2023-07-16T02:17:55;100680.41;;;15.72;77.14
51289;BME280;37372;52.294;5.152;2023-07-16T02:20:24;100685.94;;;15.72;77.60
51289;BME280;37372;52.294;5.152;2023-07-16T02:22:59;100688.72;;;15.72;77.59
51289;BME280;37372;52.294;5.152;2023-07-16T02:25:43;100693.38;;;15.71;77.82
51289;BME280;37372;52.294;5.152;2023-07-16T02:28:08;100698.09;;;15.70;77.62
51289;BME280;37372;52.294;5.152;2023-07-16T02:30:41;100702.78;;;15.70;77.85
51289;BME280;37372;52.294;5.152;2023-07-16T02:33:07;100691.72;;;15.70;77.86
51289;BME280;37372;52.294;5.152;2023-07-16T02:35:35;100693.94;;;15.68;78.44
51289;BME280;37372;52.294;5.152;2023-07-16T02:38:01;100691.97;;;15.63;78.73
51289;BME280;37372;52.294;5.152;2023-07-16T02:40:26;100682.25;;;15.61;79.28
51289;BME280;37372;52.294;5.152;2023-07-16T02:42:52;100683.94;;;15.62;79.05
51289;BME280;37372;52.294;5.152;2023-07-16T02:45:17;100687.78;;;15.61;79.24
51289;BME280;37372;52.294;5.152;2023-07-16T02:47:43;100684.97;;;15.56;79.66
51289;BME280;37372;52.294;5.152;2023-07-16T02:50:11;100675.31;;;15.53;79.40
51289;BME280;37372;52.294;5.152;2023-07-16T02:52:39;100688.28;;;15.53;79.56
51289;BME280;37372;52.294;5.152;2023-07-16T02:55:06;100682.44;;;15.49;80.13
51289;BME280;37372;52.294;5.152;2023-07-16T02:57:32;100683.84;;;15.47;79.95
51289;BME280;37372;52.294;5.152;2023-07-16T02:59:58;100683.25;;;15.44;80.54
51289;BME280;37372;52.294;5.152;2023-07-16T03:02:24;100693.78;;;15.48;79.90
51289;BME280;37372;52.294;5.152;2023-07-16T03:04:49;100692.38;;;15.45;80.78
51289;BME280;37372;52.294;5.152;2023-07-16T03:07:21;100694.31;;;15.44;81.00
51289;BME280;37372;52.294;5.152;2023-07-16T03:09:46;100702.59;;;15.44;80.32
51289;BME280;37372;52.294;5.152;2023-07-16T03:12:30;100704.84;;;15.48;80.35
51289;BME280;37372;52.294;5.152;2023-07-16T03:14:55;100698.72;;;15.45;81.08
51289;BME280;37372;52.294;5.152;2023-07-16T03:17:21;100702.88;;;15.43;81.02
51289;BME280;37372;52.294;5.152;2023-07-16T03:19:54;100707.28;;;15.44;81.24
51289;BME280;37372;52.294;5.152;2023-07-16T03:22:31;100710.34;;;15.42;81.48
51289;BME280;37372;52.294;5.152;2023-07-16T03:25:00;100712.56;;;15.45;81.62
51289;BME280;37372;52.294;5.152;2023-07-16T03:27:28;100711.72;;;15.45;81.31
51289;BME280;37372;52.294;5.152;2023-07-16T03:29:53;100720.38;;;15.54;80.58
51289;BME280;37372;52.294;5.152;2023-07-16T03:32:31;100709.31;;;15.54;80.82
51289;BME280;37372;52.294;5.152;2023-07-16T03:38:15;100713.69;;;15.50;81.10
51289;BME280;37372;52.294;5.152;2023-07-16T03:40:47;100716.72;;;15.48;80.94
51289;BME280;37372;52.294;5.152;2023-07-16T03:43:13;100722.81;;;15.50;80.57
51289;BME280;37372;52.294;5.152;2023-07-16T03:45:39;100716.19;;;15.46;81.33
51289;BME280;37372;52.294;5.152;2023-07-16T03:48:04;100716.41;;;15.44;81.32
51289;BME280;37372;52.294;5.152;2023-07-16T03:50:30;100732.44;;;15.42;81.22
51289;BME280;37372;52.294;5.152;2023-07-16T03:53:02;100733.31;;;15.48;80.62
51289;BME280;37372;52.294;5.152;2023-07-16T03:55:28;100739.97;;;15.47;80.45
51289;BME280;37372;52.294;5.152;2023-07-16T03:57:59;100749.63;;;15.50;80.69
51289;BME280;37372;52.294;5.152;2023-07-16T04:00:25;100749.91;;;15.48;81.09
51289;BME280;37372;52.294;5.152;2023-07-16T04:03:20;100742.50;;;15.54;80.29
51289;BME280;37372;52.294;5.152;2023-07-16T04:05:45;100748.94;;;15.64;79.87
51289;BME280;37372;52.294;5.152;2023-07-16T04:08:11;100750.06;;;15.68;79.94
51289;BME280;37372;52.294;5.152;2023-07-16T04:10:36;100749.03;;;15.80;79.50
51289;BME280;37372;52.294;5.152;2023-07-16T04:13:02;100752.91;;;15.84;79.88
51289;BME280;37372;52.294;5.152;2023-07-16T04:15:31;100758.53;;;15.94;78.74
51289;BME280;37372;52.294;5.152;2023-07-16T04:17:56;100764.38;;;16.03;78.85
51289;BME280;37372;52.294;5.152;2023-07-16T04:20:33;100765.19;;;16.03;79.08
51289;BME280;37372;52.294;5.152;2023-07-16T04:23:08;100766.03;;;15.98;79.62
51289;BME280;37372;52.294;5.152;2023-07-16T04:25:33;100761.56;;;15.92;79.73
51289;BME280;37372;52.294;5.152;2023-07-16T04:28:05;100767.91;;;15.93;80.03
51289;BME280;37372;52.294;5.152;2023-07-16T04:30:30;100765.44;;;15.91;80.22
51289;BME280;37372;52.294;5.152;2023-07-16T04:33:28;100757.09;;;15.86;80.24
51289;BME280;37372;52.294;5.152;2023-07-16T04:35:59;100762.63;;;15.86;79.79
51289;BME280;37372;52.294;5.152;2023-07-16T04:38:24;100767.09;;;15.92;79.92
51289;BME280;37372;52.294;5.152;2023-07-16T04:41:09;100769.91;;;15.97;79.93
51289;BME280;37372;52.294;5.152;2023-07-16T04:43:35;100774.59;;;16.02;78.88
51289;BME280;37372;52.294;5.152;2023-07-16T04:46:00;100772.09;;;16.01;79.19
51289;BME280;37372;52.294;5.152;2023-07-16T04:48:26;100765.72;;;15.95;79.05
51289;BME280;37372;52.294;5.152;2023-07-16T04:50:52;100775.94;;;15.94;78.31
51289;BME280;37372;52.294;5.152;2023-07-16T04:53:17;100773.72;;;15.91;79.01
51289;BME280;37372;52.294;5.152;2023-07-16T04:55:44;100778.69;;;15.89;78.79
51289;BME280;37372;52.294;5.152;2023-07-16T04:58:11;100779.50;;;15.90;79.37
51289;BME280;37372;52.294;5.152;2023-07-16T05:00:40;100777.81;;;15.84;78.81
51289;BME280;37372;52.294;5.152;2023-07-16T05:03:15;100784.22;;;15.89;78.76
51289;BME280;37372;52.294;5.152;2023-07-16T05:05:41;100787.81;;;15.90;78.60
51289;BME280;37372;52.294;5.152;2023-07-16T05:08:07;100786.47;;;15.92;78.23
51289;BME280;37372;52.294;5.152;2023-07-16T05:10:38;100793.09;;;15.96;78.60
51289;BME280;37372;52.294;5.152;2023-07-16T05:13:18;100795.88;;;15.96;78.48
51289;BME280;37372;52.294;5.152;2023-07-16T05:15:44;100790.34;;;15.96;78.86
51289;BME280;37372;52.294;5.152;2023-07-16T05:18:13;100784.88;;;16.07;79.03
51289;BME280;37372;52.294;5.152;2023-07-16T05:20:39;100791.34;;;16.33;77.53
51289;BME280;37372;52.294;5.152;2023-07-16T05:23:18;100789.22;;;16.50;76.98
51289;BME280;37372;52.294;5.152;2023-07-16T05:25:47;100801.16;;;16.61;75.80
51289;BME280;37372;52.294;5.152;2023-07-16T05:28:24;100799.75;;;16.53;76.09
51289;BME280;37372;52.294;5.152;2023-07-16T05:31:01;100817.72;;;16.45;75.82
51289;BME280;37372;52.294;5.152;2023-07-16T05:33:26;100802.13;;;16.29;76.68
51289;BME280;37372;52.294;5.152;2023-07-16T05:36:04;100809.91;;;16.32;75.10
51289;BME280;37372;52.294;5.152;2023-07-16T05:38:30;100816.06;;;16.44;75.39
51289;BME280;37372;52.294;5.152;2023-07-16T05:41:02;100818.53;;;16.46;73.54
51289;BME280;37372;52.294;5.152;2023-07-16T05:43:29;100813.84;;;16.46;72.95
51289;BME280;37372;52.294;5.152;2023-07-16T05:45:55;100816.09;;;16.49;72.82
51289;BME280;37372;52.294;5.152;2023-07-16T05:48:20;100820.81;;;16.59;73.03
51289;BME280;37372;52.294;5.152;2023-07-16T05:50:49;100820.28;;;16.62;72.90
51289;BME280;37372;52.294;5.152;2023-07-16T05:53:20;100824.78;;;16.78;71.27
51289;BME280;37372;52.294;5.152;2023-07-16T05:55:46;100822.81;;;16.74;71.55
51289;BME280;37372;52.294;5.152;2023-07-16T05:58:25;100826.19;;;16.81;71.20
51289;BME280;37372;52.294;5.152;2023-07-16T06:00:51;100829.22;;;16.85;71.33
51289;BME280;37372;52.294;5.152;2023-07-16T06:03:26;100836.75;;;16.89;71.16
51289;BME280;37372;52.294;5.152;2023-07-16T06:05:55;100836.16;;;16.87;71.47
51289;BME280;37372;52.294;5.152;2023-07-16T06:08:30;100851.16;;;16.96;70.60
51289;BME280;37372;52.294;5.152;2023-07-16T06:10:55;100836.50;;;17.01;70.60
51289;BME280;37372;52.294;5.152;2023-07-16T06:13:30;100832.34;;;17.14;70.99
51289;BME280;37372;52.294;5.152;2023-07-16T06:15:55;100847.31;;;17.13;70.91
51289;BME280;37372;52.294;5.152;2023-07-16T06:18:35;100840.66;;;17.24;70.93
51289;BME280;37372;52.294;5.152;2023-07-16T06:21:01;100835.97;;;17.24;70.49
51289;BME280;37372;52.294;5.152;2023-07-16T06:23:32;100844.28;;;17.50;70.94
51289;BME280;37372;52.294;5.152;2023-07-16T06:26:29;100842.63;;;17.69;69.89
51289;BME280;37372;52.294;5.152;2023-07-16T06:28:53;100849.88;;;17.75;70.11
51289;BME280;37372;52.294;5.152;2023-07-16T06:31:19;100850.41;;;17.77;69.31
51289;BME280;37372;52.294;5.152;2023-07-16T06:33:44;100855.16;;;17.72;69.47
51289;BME280;37372;52.294;5.152;2023-07-16T06:36:12;100854.00;;;17.63;69.48
51289;BME280;37372;52.294;5.152;2023-07-16T06:38:37;100869.59;;;17.79;68.78
51289;BME280;37372;52.294;5.152;2023-07-16T06:41:03;100864.28;;;17.77;69.21
51289;BME280;37372;52.294;5.152;2023-07-16T06:43:39;100885.06;;;17.70;69.39
51289;BME280;37372;52.294;5.152;2023-07-16T06:46:07;100874.03;;;17.80;68.13
51289;BME280;37372;52.294;5.152;2023-07-16T06:48:33;100880.13;;;17.87;68.82
51289;BME280;37372;52.294;5.152;2023-07-16T06:50:59;100886.22;;;17.89;67.58
51289;BME280;37372;52.294;5.152;2023-07-16T06:53:37;100893.44;;;18.05;67.77
51289;BME280;37372;52.294;5.152;2023-07-16T06:56:03;100895.06;;;18.22;67.41
51289;BME280;37372;52.294;5.152;2023-07-16T06:58:38;100895.88;;;18.22;66.56
51289;BME280;37372;52.294;5.152;2023-07-16T07:01:04;100896.47;;;18.14;67.33
51289;BME280;37372;52.294;5.152;2023-07-16T07:03:38;100898.34;;;18.44;65.57
51289;BME280;37372;52.294;5.152;2023-07-16T07:06:04;100894.69;;;18.54;66.54
51289;BME280;37372;52.294;5.152;2023-07-16T07:08:37;100899.66;;;18.77;66.11
51289;BME280;37372;52.294;5.152;2023-07-16T07:11:04;100899.34;;;18.84;66.50
51289;BME280;37372;52.294;5.152;2023-07-16T07:13:42;100904.09;;;18.78;66.58
51289;BME280;37372;52.294;5.152;2023-07-16T07:16:08;100910.47;;;18.84;67.34
51289;BME280;37372;52.294;5.152;2023-07-16T07:18:43;100907.75;;;18.58;66.49
51289;BME280;37372;52.294;5.152;2023-07-16T07:21:13;100896.63;;;18.58;67.46
51289;BME280;37372;52.294;5.152;2023-07-16T07:23:39;100920.28;;;18.46;67.21
51289;BME280;37372;52.294;5.152;2023-07-16T07:26:15;100921.41;;;18.34;68.81
51289;BME280;37372;52.294;5.152;2023-07-16T07:31:11;100932.50;;;18.45;67.85
51289;BME280;37372;52.294;5.152;2023-07-16T07:33:41;100928.03;;;18.74;67.62
51289;BME280;37372;52.294;5.152;2023-07-16T07:36:07;100929.41;;;18.66;66.99
51289;BME280;37372;52.294;5.152;2023-07-16T07:38:44;100931.06;;;18.73;67.92
51289;BME280;37372;52.294;5.152;2023-07-16T07:41:13;100938.53;;;18.87;67.43
51289;BME280;37372;52.294;5.152;2023-07-16T07:43:45;100937.16;;;18.80;67.10
51289;BME280;37372;52.294;5.152;2023-07-16T07:46:11;100940.47;;;18.87;65.94
51289;BME280;37372;52.294;5.152;2023-07-16T07:48:48;100947.72;;;18.78;66.94
51289;BME280;37372;52.294;5.152;2023-07-16T07:51:21;100947.72;;;18.78;67.28
51289;BME280;37372;52.294;5.152;2023-07-16T07:53:57;100948.56;;;18.78;67.25
51289;BME280;37372;52.294;5.152;2023-07-16T07:56:25;100950.50;;;18.78;67.66
51289;BME280;37372;52.294;5.152;2023-07-16T07:58:52;100945.06;;;19.17;66.75
51289;BME280;37372;52.294;5.152;2023-07-16T08:01:18;100958.63;;;19.29;64.85
51289;BME280;37372;52.294;5.152;2023-07-16T08:03:50;100958.41;;;19.20;66.02
51289;BME280;37372;52.294;5.152;2023-07-16T08:06:16;100963.59;;;19.32;65.19
51289;BME280;37372;52.294;5.152;2023-07-16T08:08:51;100955.03;;;19.28;65.72
51289;BME280;37372;52.294;5.152;2023-07-16T08:11:17;100962.19;;;19.39;65.04
51289;BME280;37372;52.294;5.152;2023-07-16T08:13:48;100956.38;;;19.36;64.04
51289;BME280;37372;52.294;5.152;2023-07-16T08:16:20;100968.72;;;19.19;65.64
51289;BME280;37372;52.294;5.152;2023-07-16T08:19:03;100974.47;;;19.33;65.77
51289;BME280;37372;52.294;5.152;2023-07-16T08:21:29;100964.94;;;19.44;63.79
51289;BME280;37372;52.294;5.152;2023-07-16T08:23:55;100972.19;;;19.45;63.96
51289;BME280;37372;52.294;5.152;2023-07-16T08:26:21;100972.03;;;19.16;64.63
51289;BME280;37372;52.294;5.152;2023-07-16T08:29:18;100975.28;;;19.39;64.27
51289;BME280;37372;52.294;5.152;2023-07-16T08:31:44;100965.22;;;19.43;64.05
51289;BME280;37372;52.294;5.152;2023-07-16T08:34:10;100982.25;;;19.31;64.41
51289;BME280;37372;52.294;5.152;2023-07-16T08:36:36;100980.16;;;19.57;64.72
51289;BME280;37372;52.294;5.152;2023-07-16T08:39:03;100983.97;;;19.27;64.93
51289;BME280;37372;52.294;5.152;2023-07-16T08:41:29;100986.25;;;19.10;65.19
51289;BME280;37372;52.294;5.152;2023-07-16T08:44:00;100987.38;;;19.09;66.31
51289;BME280;37372;52.294;5.152;2023-07-16T08:46:28;100984.84;;;19.12;66.69
51289;BME280;37372;52.294;5.152;2023-07-16T08:49:02;100998.06;;;19.41;65.50
51289;BME280;37372;52.294;5.152;2023-07-16T08:51:30;101000.56;;;19.42;66.33
51289;BME280;37372;52.294;5.152;2023-07-16T08:54:07;101000.53;;;19.47;64.92
51289;BME280;37372;52.294;5.152;2023-07-16T08:56:34;100994.88;;;19.68;63.89
51289;BME280;37372;52.294;5.152;2023-07-16T08:59:04;101001.19;;;19.84;64.37
51289;BME280;37372;52.294;5.152;2023-07-16T09:01:39;100997.97;;;19.66;64.94
51289;BME280;37372;52.294;5.152;2023-07-16T09:04:06;101001.72;;;19.36;64.65
51289;BME280;37372;52.294;5.152;2023-07-16T09:06:32;101012.09;;;19.15;65.84
51289;BME280;37372;52.294;5.152;2023-07-16T09:09:04;101007.38;;;19.16;66.95
51289;BME280;37372;52.294;5.152;2023-07-16T09:11:30;101011.69;;;19.42;66.47
51289;BME280;37372;52.294;5.152;2023-07-16T09:14:05;101007.84;;;19.88;64.63
51289;BME280;37372;52.294;5.152;2023-07-16T09:16:34;101009.75;;;19.92;63.76
51289;BME280;37372;52.294;5.152;2023-07-16T09:19:10;101015.41;;;19.77;62.37
51289;BME280;37372;52.294;5.152;2023-07-16T09:21:39;101022.06;;;19.81;64.25
51289;BME280;37372;52.294;5.152;2023-07-16T09:24:08;101026.59;;;19.72;65.13
51289;BME280;37372;52.294;5.152;2023-07-16T09:26:37;101039.06;;;19.85;65.03
51289;BME280;37372;52.294;5.152;2023-07-16T09:29:16;101038.38;;;20.03;63.85
51289;BME280;37372;52.294;5.152;2023-07-16T09:32:02;101039.16;;;20.09;63.85
51289;BME280;37372;52.294;5.152;2023-07-16T09:34:34;101034.53;;;20.28;63.17
51289;BME280;37372;52.294;5.152;2023-07-16T09:37:03;101039.88;;;20.24;64.10
51289;BME280;37372;52.294;5.152;2023-07-16T09:39:32;101040.59;;;20.01;64.94
51289;BME280;37372;52.294;5.152;2023-07-16T09:41:58;101040.69;;;19.91;64.21
51289;BME280;37372;52.294;5.152;2023-07-16T09:44:24;101035.25;;;20.10;64.40
51289;BME280;37372;52.294;5.152;2023-07-16T09:46:50;101038.59;;;20.46;62.14
51289;BME280;37372;52.294;5.152;2023-07-16T09:49:27;101035.25;;;20.49;61.91
51289;BME280;37372;52.294;5.152;2023-07-16T09:51:57;101043.81;;;20.87;61.42
51289;BME280;37372;52.294;5.152;2023-07-16T09:54:25;101040.31;;;21.00;60.84
51289;BME280;37372;52.294;5.152;2023-07-16T09:56:56;101047.19;;;21.07;61.12
51289;BME280;37372;52.294;5.152;2023-07-16T09:59:30;101054.63;;;20.93;60.59
51289;BME280;37372;52.294;5.152;2023-07-16T10:02:00;101054.03;;;21.20;60.59
51289;BME280;37372;52.294;5.152;2023-07-16T10:04:40;101057.38;;;21.17;61.03
51289;BME280;37372;52.294;5.152;2023-07-16T10:07:25;101063.16;;;20.73;60.41
51289;BME280;37372;52.294;5.152;2023-07-16T10:09:58;101057.91;;;20.32;62.26
51289;BME280;37372;52.294;5.152;2023-07-16T10:12:27;101074.59;;;20.03;62.56
51289;BME280;37372;52.294;5.152;2023-07-16T10:14:55;101078.56;;;19.87;62.31
51289;BME280;37372;52.294;5.152;2023-07-16T10:17:25;101080.44;;;19.96;62.90
51289;BME280;37372;52.294;5.152;2023-07-16T10:22:51;101087.53;;;19.79;64.89
51289;BME280;37372;52.294;5.152;2023-07-16T10:27:46;101080.41;;;20.41;62.20
51289;BME280;37372;52.294;5.152;2023-07-16T10:30:12;101076.56;;;20.71;61.97
51289;BME280;37372;52.294;5.152;2023-07-16T10:32:38;101083.41;;;20.83;59.20
51289;BME280;37372;52.294;5.152;2023-07-16T10:35:04;101090.81;;;20.69;58.96
51289;BME280;37372;52.294;5.152;2023-07-16T10:37:30;101087.28;;;20.59;59.14
51289;BME280;37372;52.294;5.152;2023-07-16T10:39:57;101094.03;;;20.81;59.49
51289;BME280;37372;52.294;5.152;2023-07-16T10:42:26;101101.38;;;20.72;60.31
51289;BME280;37372;52.294;5.152;2023-07-16T10:45:01;101109.66;;;20.48;61.11
51289;BME280;37372;52.294;5.152;2023-07-16T10:47:32;101104.66;;;20.01;62.52
51289;BME280;37372;52.294;5.152;2023-07-16T10:49:59;101113.38;;;20.28;62.56
51289;BME280;37372;52.294;5.152;2023-07-16T10:52:26;101110.97;;;20.61;61.52
51289;BME280;37372;52.294;5.152;2023-07-16T10:54:53;101117.56;;;20.99;61.56
51289;BME280;37372;52.294;5.152;2023-07-16T10:57:25;101113.19;;;20.59;61.21
51289;BME280;37372;52.294;5.152;2023-07-16T10:59:54;101116.97;;;20.73;60.57
51289;BME280;37372;52.294;5.152;2023-07-16T11:02:24;101121.38;;;20.79;61.63
51289;BME280;37372;52.294;5.152;2023-07-16T11:04:51;101120.50;;;20.55;60.91
51289;BME280;37372;52.294;5.152;2023-07-16T11:07:22;101125.00;;;20.41;61.48
51289;BME280;37372;52.294;5.152;2023-07-16T11:09:52;101117.38;;;20.62;62.14
51289;BME280;37372;52.294;5.152;2023-07-16T11:12:26;101119.56;;;20.65;61.35
51289;BME280;37372;52.294;5.152;2023-07-16T11:14:54;101116.06;;;20.44;61.69
51289;BME280;37372;52.294;5.152;2023-07-16T11:17:21;101121.84;;;20.58;60.28
51289;BME280;37372;52.294;5.152;2023-07-16T11:19:54;101120.81;;;20.43;61.73
51289;BME280;37372;52.294;5.152;2023-07-16T11:22:25;101118.88;;;20.49;61.57
51289;BME280;37372;52.294;5.152;2023-07-16T11:24:54;101123.34;;;20.45;61.90
51289;BME280;37372;52.294;5.152;2023-07-16T11:27:31;101129.84;;;20.69;61.14
51289;BME280;37372;52.294;5.152;2023-07-16T11:29:59;101121.59;;;20.54;61.67
51289;BME280;37372;52.294;5.152;2023-07-16T11:32:34;101111.03;;;20.51;61.91
51289;BME280;37372;52.294;5.152;2023-07-16T11:35:02;101129.50;;;19.92;62.71
51289;BME280;37372;52.294;5.152;2023-07-16T11:37:34;101132.94;;;19.69;62.56
51289;BME280;37372;52.294;5.152;2023-07-16T11:40:05;101140.47;;;19.68;63.90
51289;BME280;37372;52.294;5.152;2023-07-16T11:42:36;101145.78;;;19.60;62.69
51289;BME280;37372;52.294;5.152;2023-07-16T11:45:03;101148.56;;;19.55;62.32
51289;BME280;37372;52.294;5.152;2023-07-16T11:47:30;101163.59;;;19.54;62.23
51289;BME280;37372;52.294;5.152;2023-07-16T11:49:59;101164.66;;;19.78;62.22
51289;BME280;37372;52.294;5.152;2023-07-16T11:52:51;101158.78;;;19.85;63.11
51289;BME280;37372;52.294;5.152;2023-07-16T11:55:18;101166.84;;;19.86;62.11
51289;BME280;37372;52.294;5.152;2023-07-16T11:57:43;101172.13;;;19.83;63.18
51289;BME280;37372;52.294;5.152;2023-07-16T12:00:09;101174.38;;;19.75;62.13
51289;BME280;37372;52.294;5.152;2023-07-16T12:02:37;101177.84;;;20.12;62.60
51289;BME280;37372;52.294;5.152;2023-07-16T12:05:03;101172.78;;;20.68;60.90
51289;BME280;37372;52.294;5.152;2023-07-16T12:07:33;101173.16;;;20.91;60.47
51289;BME280;37372;52.294;5.152;2023-07-16T12:10:04;101168.44;;;21.20;60.15
51289;BME280;37372;52.294;5.152;2023-07-16T12:12:31;101175.06;;;21.24;58.51
51289;BME280;37372;52.294;5.152;2023-07-16T12:14:56;101178.44;;;21.21;58.57
51289;BME280;37372;52.294;5.152;2023-07-16T12:17:27;101180.13;;;21.51;58.27
51289;BME280;37372;52.294;5.152;2023-07-16T12:19:53;101179.09;;;21.42;58.54
51289;BME280;37372;52.294;5.152;2023-07-16T12:22:20;101183.19;;;21.50;58.86
51289;BME280;37372;52.294;5.152;2023-07-16T12:24:46;101190.94;;;21.58;59.21
51289;BME280;37372;52.294;5.152;2023-07-16T12:27:14;101175.31;;;21.57;57.17
51289;BME280;37372;52.294;5.152;2023-07-16T12:29:54;101176.22;;;21.18;56.81
51289;BME280;37372;52.294;5.152;2023-07-16T12:32:22;101179.38;;;21.12;57.93
51289;BME280;37372;52.294;5.152;2023-07-16T12:34:47;101182.69;;;20.85;56.33
51289;BME280;37372;52.294;5.152;2023-07-16T12:37:12;101183.84;;;20.78;57.55
51289;BME280;37372;52.294;5.152;2023-07-16T12:39:52;101191.00;;;20.55;57.20
51289;BME280;37372;52.294;5.152;2023-07-16T12:42:21;101204.28;;;20.69;59.32
51289;BME280;37372;52.294;5.152;2023-07-16T12:44:47;101200.06;;;21.40;55.42
51289;BME280;37372;52.294;5.152;2023-07-16T12:47:15;101208.75;;;21.62;55.55
51289;BME280;37372;52.294;5.152;2023-07-16T12:49:43;101207.56;;;21.68;53.90
51289;BME280;37372;52.294;5.152;2023-07-16T12:52:14;101221.22;;;21.12;55.83
51289;BME280;37372;52.294;5.152;2023-07-16T12:54:40;101212.47;;;20.94;57.12
51289;BME280;37372;52.294;5.152;2023-07-16T12:57:06;101213.75;;;21.07;57.29
51289;BME280;37372;52.294;5.152;2023-07-16T12:59:41;101209.38;;;21.30;56.85
51289;BME280;37372;52.294;5.152;2023-07-16T13:02:12;101224.06;;;21.41;54.54
51289;BME280;37372;52.294;5.152;2023-07-16T13:04:54;101222.94;;;21.42;55.31
51289;BME280;37372;52.294;5.152;2023-07-16T13:07:21;101210.53;;;21.53;55.27
51289;BME280;37372;52.294;5.152;2023-07-16T13:09:49;101204.91;;;21.58;55.44
51289;BME280;37372;52.294;5.152;2023-07-16T13:12:17;101221.22;;;21.46;54.89
51289;BME280;37372;52.294;5.152;2023-07-16T13:14:57;101225.69;;;21.47;55.36
51289;BME280;37372;52.294;5.152;2023-07-16T13:17:34;101224.94;;;21.65;55.50
51289;BME280;37372;52.294;5.152;2023-07-16T13:20:00;101217.03;;;21.72;54.47